sensor_id;sensor_type;location;lat;lon;timestamp;temperature;humidity
74569;DHT22;63052;50.266;7.968;2022-10-16T00:09:47;18.20;99.90
74569;DHT22;63052;50.266;7.968;2022-10-16T00:19:50;18.30;99.90
74569;DHT22;63052;50.266;7.968;2022-10-16T00:29:52;18.20;99.90
74569;DHT22;63052;50.266;7.968;2022-10-16T00:39:55;18.20;99.90
74569;DHT22;63052;50.266;7.968;2022-10-16T00:50:05;18.20;99.90
74569;DHT22;63052;50.266;7.968;2022-10-16T01:00:09;18.20;99.90
74569;DHT22;63052;50.266;7.968;2022-10-16T01:10:23;18.20;99.90
74569;DHT22;63052;50.266;7.968;2022-10-16T01:20:28;18.20;99.90
74569;DHT22;63052;50.266;7.968;2022-10-16T01:30:34;18.00;99.90
74569;DHT22;63052;50.266;7.968;2022-10-16T01:40:39;18.10;99.90
74569;DHT22;63052;50.266;7.968;2022-10-16T01:50:44;18.10;99.90
74569;DHT22;63052;50.266;7.968;2022-10-16T02:00:48;18.00;99.90
74569;DHT22;63052;50.266;7.968;2022-10-16T02:10:51;18.00;99.90
74569;DHT22;63052;50.266;7.968;2022-10-16T02:20:57;18.10;99.90
74569;DHT22;63052;50.266;7.968;2022-10-16T02:31:01;18.10;99.90
74569;DHT22;63052;50.266;7.968;2022-10-16T02:41:04;18.10;99.90
74569;DHT22;63052;50.266;7.968;2022-10-16T02:51:07;18.10;99.90
74569;DHT22;63052;50.266;7.968;2022-10-16T03:01:09;18.10;99.90
74569;DHT22;63052;50.266;7.968;2022-10-16T03:11:14;18.20;99.90
74569;DHT22;63052;50.266;7.968;2022-10-16T03:21:17;18.10;99.90
74569;DHT22;63052;50.266;7.968;2022-10-16T03:31:19;18.10;99.90
74569;DHT22;63052;50.266;7.968;2022-10-16T03:41:22;18.00;99.90
74569;DHT22;63052;50.266;7.968;2022-10-16T03:51:24;18.00;99.90
74569;DHT22;63052;50.266;7.968;2022-10-16T04:01:27;18.00;99.90
74569;DHT22;63052;50.266;7.968;2022-10-16T04:11:29;18.00;99.90
74569;DHT22;63052;50.266;7.968;2022-10-16T04:21:32;17.90;99.90
74569;DHT22;63052;50.266;7.968;2022-10-16T04:31:34;18.00;99.90
74569;DHT22;63052;50.266;7.968;2022-10-16T04:41:37;18.00;99.90
74569;DHT22;63052;50.266;7.968;2022-10-16T04:51:39;18.00;99.90
74569;DHT22;63052;50.266;7.968;2022-10-16T05:01:42;18.00;99.90
74569;DHT22;63052;50.266;7.968;2022-10-16T05:11:45;18.00;99.90
74569;DHT22;63052;50.266;7.968;2022-10-16T05:21:47;17.90;99.90
74569;DHT22;63052;50.266;7.968;2022-10-16T05:31:51;17.90;99.90
74569;DHT22;63052;50.266;7.968;2022-10-16T05:41:54;18.00;99.90
74569;DHT22;63052;50.266;7.968;2022-10-16T05:51:56;17.90;99.90
74569;DHT22;63052;50.266;7.968;2022-10-16T06:02:00;18.00;99.90
74569;DHT22;63052;50.266;7.968;2022-10-16T06:12:03;17.90;99.90
74569;DHT22;63052;50.266;7.968;2022-10-16T06:22:06;17.90;99.90
74569;DHT22;63052;50.266;7.968;2022-10-16T06:32:08;18.00;99.90
74569;DHT22;63052;50.266;7.968;2022-10-16T06:42:11;18.00;99.90
74569;DHT22;63052;50.266;7.968;2022-10-16T06:52:13;17.90;99.90
74569;DHT22;63052;50.266;7.968;2022-10-16T07:02:16;18.00;99.90
74569;DHT22;63052;50.266;7.968;2022-10-16T07:12:18;18.00;99.90
74569;DHT22;63052;50.266;7.968;2022-10-16T07:22:21;18.00;99.90
74569;DHT22;63052;50.266;7.968;2022-10-16T07:32:23;18.00;99.90
74569;DHT22;63052;50.266;7.968;2022-10-16T07:42:27;18.00;99.90
74569;DHT22;63052;50.266;7.968;2022-10-16T07:52:30;18.00;99.90
74569;DHT22;63052;50.266;7.968;2022-10-16T08:02:32;18.00;99.90
74569;DHT22;63052;50.266;7.968;2022-10-16T08:12:35;18.00;99.90
74569;DHT22;63052;50.266;7.968;2022-10-16T08:22:37;18.00;99.90
74569;DHT22;63052;50.266;7.968;2022-10-16T08:32:40;18.00;99.90
74569;DHT22;63052;50.266;7.968;2022-10-16T08:42:53;18.10;99.90
74569;DHT22;63052;50.266;7.968;2022-10-16T08:52:54;18.10;99.90
74569;DHT22;63052;50.266;7.968;2022-10-16T09:13:32;18.20;99.90
74569;DHT22;63052;50.266;7.968;2022-10-16T09:23:37;18.20;99.90
74569;DHT22;63052;50.266;7.968;2022-10-16T09:33:41;18.10;99.90
74569;DHT22;63052;50.266;7.968;2022-10-16T09:43:55;18.20;99.90
74569;DHT22;63052;50.266;7.968;2022-10-16T10:04:10;18.20;99.90
74569;DHT22;63052;50.266;7.968;2022-10-16T10:14:18;18.30;99.90
74569;DHT22;63052;50.266;7.968;2022-10-16T10:24:21;18.40;99.90
74569;DHT22;63052;50.266;7.968;2022-10-16T10:55:30;18.70;99.90
74569;DHT22;63052;50.266;7.968;2022-10-16T11:05:40;18.70;99.90
74569;DHT22;63052;50.266;7.968;2022-10-16T11:15:43;18.70;99.90
74569;DHT22;63052;50.266;7.968;2022-10-16T11:25:47;18.70;99.90
74569;DHT22;63052;50.266;7.968;2022-10-16T11:36:23;18.70;99.90
74569;DHT22;63052;50.266;7.968;2022-10-16T11:46:26;18.80;99.90
74569;DHT22;63052;50.266;7.968;2022-10-16T11:56:31;18.80;99.90
74569;DHT22;63052;50.266;7.968;2022-10-16T12:06:37;18.80;99.90
74569;DHT22;63052;50.266;7.968;2022-10-16T12:17:00;18.90;99.90
74569;DHT22;63052;50.266;7.968;2022-10-16T12:27:06;18.90;99.90
74569;DHT22;63052;50.266;7.968;2022-10-16T12:37:14;19.00;99.90
74569;DHT22;63052;50.266;7.968;2022-10-16T12:47:22;19.00;99.90
74569;DHT22;63052;50.266;7.968;2022-10-16T13:18:53;19.00;99.90
74569;DHT22;63052;50.266;7.968;2022-10-16T13:28:53;19.10;99.90
74569;DHT22;63052;50.266;7.968;2022-10-16T13:39:01;19.10;99.90
74569;DHT22;63052;50.266;7.968;2022-10-16T13:49:11;19.10;99.90
74569;DHT22;63052;50.266;7.968;2022-10-16T13:59:24;19.10;99.90
74569;DHT22;63052;50.266;7.968;2022-10-16T14:09:29;19.10;99.90
74569;DHT22;63052;50.266;7.968;2022-10-16T14:19:32;19.10;99.90
74569;DHT22;63052;50.266;7.968;2022-10-16T14:29:35;19.10;99.90
74569;DHT22;63052;50.266;7.968;2022-10-16T14:39:37;19.10;99.90
74569;DHT22;63052;50.266;7.968;2022-10-16T14:49:42;19.10;99.90
74569;DHT22;63052;50.266;7.968;2022-10-16T14:59:44;19.10;99.90
74569;DHT22;63052;50.266;7.968;2022-10-16T15:09:47;19.10;99.90
74569;DHT22;63052;50.266;7.968;2022-10-16T15:19:49;19.10;99.90
74569;DHT22;63052;50.266;7.968;2022-10-16T15:29:52;19.00;99.90
74569;DHT22;63052;50.266;7.968;2022-10-16T15:39:55;19.10;99.90
74569;DHT22;63052;50.266;7.968;2022-10-16T15:49:57;19.10;99.90
74569;DHT22;63052;50.266;7.968;2022-10-16T16:00:00;19.00;99.90
74569;DHT22;63052;50.266;7.968;2022-10-16T16:10:04;19.00;99.90
74569;DHT22;63052;50.266;7.968;2022-10-16T16:20:07;19.00;99.90
74569;DHT22;63052;50.266;7.968;2022-10-16T16:30:11;19.00;99.90
74569;DHT22;63052;50.266;7.968;2022-10-16T16:40:14;19.00;99.90
74569;DHT22;63052;50.266;7.968;2022-10-16T16:50:16;19.00;99.90
74569;DHT22;63052;50.266;7.968;2022-10-16T17:00:19;18.90;99.90
74569;DHT22;63052;50.266;7.968;2022-10-16T17:10:21;18.90;99.90
74569;DHT22;63052;50.266;7.968;2022-10-16T17:20:23;18.90;99.90
74569;DHT22;63052;50.266;7.968;2022-10-16T17:30:26;18.90;99.90
74569;DHT22;63052;50.266;7.968;2022-10-16T17:40:28;18.90;99.90
74569;DHT22;63052;50.266;7.968;2022-10-16T17:50:31;18.90;99.90
74569;DHT22;63052;50.266;7.968;2022-10-16T18:00:34;18.90;99.90
74569;DHT22;63052;50.266;7.968;2022-10-16T18:10:36;18.90;99.90
74569;DHT22;63052;50.266;7.968;2022-10-16T18:20:40;18.90;99.90
74569;DHT22;63052;50.266;7.968;2022-10-16T18:30:43;19.00;99.90
74569;DHT22;63052;50.266;7.968;2022-10-16T18:40:46;18.90;99.90
74569;DHT22;63052;50.266;7.968;2022-10-16T18:50:48;19.00;99.90
74569;DHT22;63052;50.266;7.968;2022-10-16T19:00:51;19.00;99.90
74569;DHT22;63052;50.266;7.968;2022-10-16T19:10:53;19.00;99.90
74569;DHT22;63052;50.266;7.968;2022-10-16T19:21:00;19.00;99.90
74569;DHT22;63052;50.266;7.968;2022-10-16T19:31:03;19.00;99.90
74569;DHT22;63052;50.266;7.968;2022-10-16T19:41:11;19.00;99.90
74569;DHT22;63052;50.266;7.968;2022-10-16T19:51:16;19.00;99.90
74569;DHT22;63052;50.266;7.968;2022-10-16T20:01:19;19.00;99.90
74569;DHT22;63052;50.266;7.968;2022-10-16T20:11:24;19.00;99.90
74569;DHT22;63052;50.266;7.968;2022-10-16T20:21:29;19.00;99.90
74569;DHT22;63052;50.266;7.968;2022-10-16T20:31:33;18.90;99.90
74569;DHT22;63052;50.266;7.968;2022-10-16T20:41:35;18.90;99.90
74569;DHT22;63052;50.266;7.968;2022-10-16T20:51:38;18.90;99.90
74569;DHT22;63052;50.266;7.968;2022-10-16T21:01:40;18.90;99.90
74569;DHT22;63052;50.266;7.968;2022-10-16T21:11:43;18.90;99.90
74569;DHT22;63052;50.266;7.968;2022-10-16T21:21:45;18.90;99.90
74569;DHT22;63052;50.266;7.968;2022-10-16T21:31:48;18.80;99.90
74569;DHT22;63052;50.266;7.968;2022-10-16T21:41:51;18.80;99.90
74569;DHT22;63052;50.266;7.968;2022-10-16T21:51:53;18.90;99.90
74569;DHT22;63052;50.266;7.968;2022-10-16T22:01:56;18.80;99.90
74569;DHT22;63052;50.266;7.968;2022-10-16T22:11:58;18.90;99.90
74569;DHT22;63052;50.266;7.968;2022-10-16T22:22:01;18.90;99.90
74569;DHT22;63052;50.266;7.968;2022-10-16T22:32:03;18.90;99.90
74569;DHT22;63052;50.266;7.968;2022-10-16T22:42:06;18.90;99.90
74569;DHT22;63052;50.266;7.968;2022-10-16T22:52:08;18.90;99.90
74569;DHT22;63052;50.266;7.968;2022-10-16T23:02:11;18.90;99.90
74569;DHT22;63052;50.266;7.968;2022-10-16T23:12:13;18.90;99.90
74569;DHT22;63052;50.266;7.968;2022-10-16T23:22:16;18.90;99.90
74569;DHT22;63052;50.266;7.968;2022-10-16T23:32:18;18.90;99.90
74569;DHT22;63052;50.266;7.968;2022-10-16T23:42:21;18.90;99.90
74569;DHT22;63052;50.266;7.968;2022-10-16T23:52:23;18.90;99.90
